Time,TemperatureF,DewpointF,PressureIn,WindDirection,WindDirectionDegrees,WindSpeedMPH,WindSpeedGustMPH,Humidity,HourlyPrecipIn,Conditions,Clouds,dailyrainin,SolarRadiationWatts/m^2,SoftwareType,DateUTC
2013-10-29 00:04:00,51.0,49.9,29.93,West,271,0.0,1.0,96,0.00,,,0.00,0,Wunderground v.1.15,2013-10-29 07:04:00,
2013-10-29 00:10:00,51.0,49.6,29.93,West,271,2.0,2.0,95,0.00,,,0.00,0,Wunderground v.1.15,2013-10-29 07:10:00,
2013-10-29 00:15:00,51.0,49.6,29.93,West,271,1.0,1.0,95,0.00,,,0.00,0,Wunderground v.1.15,2013-10-29 07:15:00,
2013-10-29 00:21:00,51.0,49.6,29.93,West,271,2.0,2.0,95,0.00,,,0.00,0,Wunderground v.1.15,2013-10-29 07:21:00,
2013-10-29 00:26:00,51.1,50.0,29.93,NW,316,0.0,3.0,96,0.00,,,0.00,0,Wunderground v.1.15,2013-10-29 07:26:00,
2013-10-29 00:31:00,51.2,49.8,29.93,NW,316,0.0,1.0,95,0.00,,,0.00,0,Wunderground v.1.15,2013-10-29 07:31:00,
2013-10-29 00:36:00,51.3,49.9,29.93,NW,316,0.0,1.0,95,0.00,,,0.00,0,Wunderground v.1.15,2013-10-29 07:36:00,
2013-10-29 00:42:00,51.5,50.4,29.93,NW,316,1.0,1.0,96,0.00,,,0.00,0,Wunderground v.1.15,2013-10-29 07:42:00,
2013-10-29 00:47:00,51.2,49.8,29.93,WNW,298,2.0,3.0,95,0.00,,,0.00,0,Wunderground v.1.15,2013-10-29 07:47:00,
2013-10-29 00:52:00,50.8,49.4,29.93,WNW,298,0.0,2.0,95,0.00,,,0.00,0,Wunderground v.1.15,2013-10-29 07:52:00,
2013-10-29 00:57:00,50.8,49.4,29.93,WNW,298,0.0,2.0,95,0.00,,,0.00,0,Wunderground v.1.15,2013-10-29 07:57:00,
2013-10-29 01:03:00,50.8,49.4,29.93,WNW,298,0.0,0.0,95,0.00,,,0.00,0,Wunderground v.1.15,2013-10-29 08:03:00,
2013-10-29 01:08:00,50.9,49.5,29.93,WNW,298,0.0,0.0,95,0.00,,,0.00,0,Wunderground v.1.15,2013-10-29 08:08:00,
2013-10-29 01:14:00,51.0,49.3,29.93,WNW,298,1.0,1.0,94,0.00,,,0.00,0,Wunderground v.1.15,2013-10-29 08:14:00,
2013-10-29 01:20:00,51.1,49.4,29.93,WNW,298,0.0,0.0,94,0.00,,,0.00,0,Wunderground v.1.15,2013-10-29 08:20:00,
2013-10-29 01:25:00,51.0,49.3,29.93,WNW,298,0.0,0.0,94,0.00,,,0.00,0,Wunderground v.1.15,2013-10-29 08:25:00,
2013-10-29 01:31:00,51.2,49.8,29.93,WNW,298,1.0,1.0,95,0.00,,,0.00,0,Wunderground v.1.15,2013-10-29 08:31:00,
2013-10-29 01:37:00,51.2,49.8,29.93,NW,311,0.0,1.0,95,0.00,,,0.00,0,Wunderground v.1.15,2013-10-29 08:37:00,
2013-10-29 01:43:00,51.2,49.5,29.93,NW,311,0.0,1.0,94,0.00,,,0.00,0,Wunderground v.1.15,2013-10-29 08:43:00,
2013-10-29 01:49:00,51.3,49.9,29.93,NW,323,0.0,1.0,95,0.00,,,0.00,0,Wunderground v.1.15,2013-10-29 08:49:00,
2013-10-29 01:55:00,51.5,50.1,29.93,NW,323,0.0,0.0,95,0.00,,,0.00,0,Wunderground v.1.15,2013-10-29 08:55:00,
2013-10-29 02:00:00,51.3,49.9,29.93,NW,323,1.0,1.0,95,0.00,,,0.00,0,Wunderground v.1.15,2013-10-29 09:00:00,
2013-10-29 02:05:00,51.1,49.7,29.93,NW,323,0.0,2.0,95,0.00,,,0.00,0,Wunderground v.1.15,2013-10-29 09:05:00,
2013-10-29 02:10:00,51.2,50.1,29.93,NW,323,0.0,1.0,96,0.00,,,0.00,0,Wunderground v.1.15,2013-10-29 09:10:00,
2013-10-29 02:16:00,51.2,50.1,29.93,NW,323,0.0,1.0,96,0.00,,,0.00,0,Wunderground v.1.15,2013-10-29 09:16:00,
2013-10-29 02:21:00,51.1,50.0,29.93,NW,323,0.0,0.0,96,0.00,,,0.00,0,Wunderground v.1.15,2013-10-29 09:21:00,
2013-10-29 02:26:00,51.0,49.9,29.93,NW,323,0.0,0.0,96,0.00,,,0.00,0,Wunderground v.1.15,2013-10-29 09:26:00,
2013-10-29 02:31:00,51.0,49.9,29.93,NW,323,0.0,1.0,96,0.00,,,0.00,0,Wunderground v.1.15,2013-10-29 09:31:00,
2013-10-29 02:36:00,51.0,49.9,29.93,NW,323,0.0,1.0,96,0.00,,,0.00,0,Wunderground v.1.15,2013-10-29 09:36:00,
2013-10-29 02:41:00,50.9,49.8,29.92,NW,322,1.0,2.0,96,0.00,,,0.00,0,Wunderground v.1.15,2013-10-29 09:41:00,
2013-10-29 02:46:00,50.6,49.5,29.92,NW,322,0.0,2.0,96,0.00,,,0.00,0,Wunderground v.1.15,2013-10-29 09:46:00,
2013-10-29 02:51:00,50.3,48.9,29.92,NW,322,1.0,2.0,95,0.00,,,0.00,0,Wunderground v.1.15,2013-10-29 09:51:00,
2013-10-29 02:56:00,50.1,49.0,29.92,NW,322,0.0,2.0,96,0.00,,,0.00,0,Wunderground v.1.15,2013-10-29 09:56:00,
2013-10-29 03:02:00,49.9,48.8,29.92,NW,322,2.0,2.0,96,0.00,,,0.00,0,Wunderground v.1.15,2013-10-29 10:02:00,
2013-10-29 03:07:00,49.6,48.2,29.92,WNW,300,1.0,3.0,95,0.00,,,0.00,0,Wunderground v.1.15,2013-10-29 10:07:00,
2013-10-29 03:12:00,49.3,48.2,29.92,WNW,301,1.0,2.0,96,0.00,,,0.00,0,Wunderground v.1.15,2013-10-29 10:12:00,
2013-10-29 03:17:00,48.9,47.5,29.92,WNW,301,0.0,2.0,95,0.00,,,0.00,0,Wunderground v.1.15,2013-10-29 10:17:00,
2013-10-29 03:22:00,48.7,47.6,29.92,WNW,296,0.0,1.0,96,0.00,,,0.00,0,Wunderground v.1.15,2013-10-29 10:22:00,
2013-10-29 03:27:00,48.5,47.4,29.92,WSW,243,1.0,2.0,96,0.00,,,0.00,0,Wunderground v.1.15,2013-10-29 10:27:00,
2013-10-29 03:32:00,48.3,47.2,29.92,WSW,243,0.0,1.0,96,0.00,,,0.00,0,Wunderground v.1.15,2013-10-29 10:32:00,
2013-10-29 03:37:00,48.3,47.2,29.92,WSW,243,0.0,1.0,96,0.00,,,0.00,0,Wunderground v.1.15,2013-10-29 10:37:00,
2013-10-29 03:42:00,47.6,46.2,29.92,WSW,243,2.0,2.0,95,0.00,,,0.00,0,Wunderground v.1.15,2013-10-29 10:42:00,
2013-10-29 03:48:00,46.9,45.5,29.92,SSE,167,1.0,3.0,95,0.00,,,0.00,0,Wunderground v.1.15,2013-10-29 10:48:00,
2013-10-29 03:53:00,46.8,45.7,29.92,SSE,167,0.0,3.0,96,0.00,,,0.00,0,Wunderground v.1.15,2013-10-29 10:53:00,
2013-10-29 03:58:00,47.0,45.9,29.92,SSE,167,1.0,3.0,96,0.00,,,0.00,0,Wunderground v.1.15,2013-10-29 10:58:00,
2013-10-29 04:03:00,47.4,46.3,29.92,ENE,73,3.0,3.0,96,0.00,,,0.00,0,Wunderground v.1.15,2013-10-29 11:03:00,
2013-10-29 04:08:00,47.4,46.3,29.92,ENE,73,2.0,3.0,96,0.00,,,0.00,0,Wunderground v.1.15,2013-10-29 11:08:00,
2013-10-29 04:13:00,47.6,46.8,29.92,ENE,73,1.0,3.0,97,0.00,,,0.00,0,Wunderground v.1.15,2013-10-29 11:13:00,
2013-10-29 04:18:00,47.7,46.6,29.92,ENE,71,2.0,3.0,96,0.00,,,0.00,0,Wunderground v.1.15,2013-10-29 11:18:00,
2013-10-29 04:23:00,48.3,47.5,29.92,ENE,61,1.0,2.0,97,0.00,,,0.00,0,Wunderground v.1.15,2013-10-29 11:23:00,
2013-10-29 04:29:00,48.7,47.9,29.92,NNW,344,1.0,3.0,97,0.00,,,0.00,0,Wunderground v.1.15,2013-10-29 11:29:00,
2013-10-29 04:34:00,48.1,47.0,29.93,NNW,346,2.0,2.0,96,0.00,,,0.00,0,Wunderground v.1.15,2013-10-29 11:34:00,
2013-10-29 04:39:00,47.5,46.4,29.93,ENE,63,4.0,5.0,96,0.00,,,0.00,0,Wunderground v.1.15,2013-10-29 11:39:00,
2013-10-29 04:44:00,47.8,47.0,29.93,ENE,74,5.0,7.0,97,0.00,,,0.00,0,Wunderground v.1.15,2013-10-29 11:44:00,
2013-10-29 04:49:00,48.2,47.4,29.93,ENE,70,1.0,7.0,97,0.00,,,0.00,0,Wunderground v.1.15,2013-10-29 11:49:00,
2013-10-29 04:54:00,48.4,47.6,29.93,ENE,61,3.0,4.0,97,0.00,,,0.00,0,Wunderground v.1.15,2013-10-29 11:54:00,
2013-10-29 05:00:00,48.7,47.9,29.93,NNE,32,4.0,4.0,97,0.00,,,0.00,0,Wunderground v.1.15,2013-10-29 12:00:00,
2013-10-29 05:05:00,49.0,48.2,29.93,NNE,24,2.0,5.0,97,0.00,,,0.00,0,Wunderground v.1.15,2013-10-29 12:05:00,
2013-10-29 05:10:00,49.1,48.3,29.93,NNE,25,1.0,3.0,97,0.00,,,0.00,0,Wunderground v.1.15,2013-10-29 12:10:00,
2013-10-29 05:15:00,49.2,48.4,29.93,NNE,25,0.0,3.0,97,0.00,,,0.00,0,Wunderground v.1.15,2013-10-29 12:15:00,
2013-10-29 05:20:00,49.1,48.0,29.93,NNE,25,2.0,2.0,96,0.00,,,0.00,0,Wunderground v.1.15,2013-10-29 12:20:00,
2013-10-29 05:25:00,48.3,47.2,29.93,NNE,25,2.0,3.0,96,0.00,,,0.00,0,Wunderground v.1.15,2013-10-29 12:25:00,
2013-10-29 05:30:00,47.7,46.6,29.93,NNE,26,2.0,3.0,96,0.00,,,0.00,0,Wunderground v.1.15,2013-10-29 12:30:00,
2013-10-29 05:36:00,47.4,46.3,29.93,NNE,31,1.0,3.0,96,0.00,,,0.00,0,Wunderground v.1.15,2013-10-29 12:36:00,
2013-10-29 05:41:00,47.5,46.4,29.93,NNE,31,2.0,2.0,96,0.00,,,0.00,0,Wunderground v.1.15,2013-10-29 12:41:00,
2013-10-29 05:46:00,47.3,46.2,29.93,NNE,31,2.0,2.0,96,0.00,,,0.00,0,Wunderground v.1.15,2013-10-29 12:46:00,
2013-10-29 05:51:00,47.4,46.3,29.93,NNE,31,2.0,2.0,96,0.00,,,0.00,0,Wunderground v.1.15,2013-10-29 12:51:00,
2013-10-29 05:56:00,47.1,46.0,29.93,NNE,31,3.0,4.0,96,0.00,,,0.00,0,Wunderground v.1.15,2013-10-29 12:56:00,
2013-10-29 06:01:00,46.8,45.7,29.93,NNE,32,3.0,4.0,96,0.00,,,0.00,0,Wunderground v.1.15,2013-10-29 13:01:00,
2013-10-29 06:06:00,47.0,46.2,29.93,NE,54,5.0,5.0,97,0.00,,,0.00,0,Wunderground v.1.15,2013-10-29 13:06:00,
2013-10-29 06:11:00,47.4,46.6,29.93,NE,41,6.0,9.0,97,0.00,,,0.00,0,Wunderground v.1.15,2013-10-29 13:11:00,
2013-10-29 06:16:00,47.6,46.8,29.93,NE,39,5.0,9.0,97,0.00,,,0.00,0,Wunderground v.1.15,2013-10-29 13:16:00,
2013-10-29 06:21:00,47.6,46.8,29.93,NNE,28,6.0,8.0,97,0.00,,,0.00,0,Wunderground v.1.15,2013-10-29 13:21:00,
2013-10-29 06:26:00,47.6,46.8,29.94,NNE,13,3.0,8.0,97,0.00,,,0.00,0,Wunderground v.1.15,2013-10-29 13:26:00,
2013-10-29 06:31:00,47.6,46.8,29.93,NE,40,3.0,6.0,97,0.00,,,0.00,0,Wunderground v.1.15,2013-10-29 13:31:00,
2013-10-29 06:37:00,47.6,46.5,29.93,NNE,24,3.0,6.0,96,0.00,,,0.00,0,Wunderground v.1.15,2013-10-29 13:37:00,
2013-10-29 06:42:00,47.5,46.4,29.93,NE,34,4.0,5.0,96,0.00,,,0.00,0,Wunderground v.1.15,2013-10-29 13:42:00,
2013-10-29 06:47:00,47.4,46.3,29.94,NE,50,3.0,5.0,96,0.00,,,0.00,0,Wunderground v.1.15,2013-10-29 13:47:00,
2013-10-29 06:52:00,46.9,45.8,29.94,NE,51,5.0,5.0,96,0.00,,,0.00,0,Wunderground v.1.15,2013-10-29 13:52:00,
2013-10-29 06:57:00,46.6,45.5,29.94,NE,50,4.0,5.0,96,0.00,,,0.00,0,Wunderground v.1.15,2013-10-29 13:57:00,
2013-10-29 07:02:00,46.6,45.5,29.94,NE,34,4.0,6.0,96,0.00,,,0.00,0,Wunderground v.1.15,2013-10-29 14:02:00,
2013-10-29 07:08:00,46.9,45.8,29.94,NNE,30,4.0,7.0,96,0.00,,,0.00,0,Wunderground v.1.15,2013-10-29 14:08:00,
2013-10-29 07:13:00,47.1,46.0,29.94,NE,34,5.0,9.0,96,0.00,,,0.00,5,Wunderground v.1.15,2013-10-29 14:13:00,
2013-10-29 07:18:00,47.2,46.1,29.94,NNE,27,3.0,9.0,96,0.00,,,0.00,7,Wunderground v.1.15,2013-10-29 14:18:00,
2013-10-29 07:23:00,47.2,46.1,29.94,NE,36,4.0,9.0,96,0.00,,,0.00,11,Wunderground v.1.15,2013-10-29 14:23:00,
2013-10-29 07:28:00,47.2,46.1,29.94,NE,46,5.0,9.0,96,0.00,,,0.00,12,Wunderground v.1.15,2013-10-29 14:28:00,
2013-10-29 07:33:00,47.2,46.1,29.94,NNE,24,3.0,6.0,96,0.00,,,0.00,14,Wunderground v.1.15,2013-10-29 14:33:00,
2013-10-29 07:39:00,47.3,46.2,29.94,ENE,61,4.0,8.0,96,0.00,,,0.00,18,Wunderground v.1.15,2013-10-29 14:39:00,
2013-10-29 07:44:00,46.2,44.8,29.95,ESE,103,3.0,4.0,95,0.00,,,0.00,19,Wunderground v.1.15,2013-10-29 14:44:00,
2013-10-29 07:49:00,45.6,44.3,29.95,ESE,103,2.0,4.0,95,0.00,,,0.00,23,Wunderground v.1.15,2013-10-29 14:49:00,
2013-10-29 07:54:00,45.7,44.6,29.95,ENE,65,3.0,5.0,96,0.00,,,0.00,25,Wunderground v.1.15,2013-10-29 14:54:00,
2013-10-29 07:59:00,46.0,44.9,29.95,NE,55,5.0,6.0,96,0.00,,,0.00,28,Wunderground v.1.15,2013-10-29 14:59:00,
2013-10-29 08:04:00,46.1,45.0,29.96,ENE,62,4.0,5.0,96,0.00,,,0.00,30,Wunderground v.1.15,2013-10-29 15:04:00,
2013-10-29 08:09:00,46.5,45.4,29.96,NE,47,4.0,6.0,96,0.00,,,0.00,100,Wunderground v.1.15,2013-10-29 15:09:00,
2013-10-29 08:14:00,47.2,46.4,29.96,NE,43,4.0,6.0,97,0.00,,,0.00,114,Wunderground v.1.15,2013-10-29 15:14:00,
2013-10-29 08:19:00,48.1,47.0,29.96,ENE,71,3.0,7.0,96,0.00,,,0.00,125,Wunderground v.1.15,2013-10-29 15:19:00,
2013-10-29 08:25:00,47.9,46.5,29.96,ENE,66,4.0,5.0,95,0.00,,,0.00,137,Wunderground v.1.15,2013-10-29 15:25:00,
2013-10-29 08:30:00,48.7,47.6,29.96,NE,34,5.0,5.0,96,0.00,,,0.00,151,Wunderground v.1.15,2013-10-29 15:30:00,
2013-10-29 08:35:00,49.6,48.2,29.96,NNE,19,8.0,9.0,95,0.00,,,0.00,165,Wunderground v.1.15,2013-10-29 15:35:00,
2013-10-29 08:40:00,50.4,48.2,29.96,NE,34,4.0,6.0,92,0.00,,,0.00,181,Wunderground v.1.15,2013-10-29 15:40:00,
2013-10-29 08:45:00,51.1,48.9,29.96,ENE,76,3.0,6.0,92,0.00,,,0.00,195,Wunderground v.1.15,2013-10-29 15:45:00,
2013-10-29 08:50:00,51.1,48.3,29.96,ESE,105,1.0,3.0,90,0.00,,,0.00,209,Wunderground v.1.15,2013-10-29 15:50:00,
2013-10-29 08:55:00,51.1,48.9,29.96,ENE,71,5.0,6.0,92,0.00,,,0.00,220,Wunderground v.1.15,2013-10-29 15:55:00,
2013-10-29 09:01:00,51.8,49.3,29.96,ENE,59,3.0,5.0,91,0.00,,,0.00,237,Wunderground v.1.15,2013-10-29 16:01:00,
2013-10-29 09:06:00,52.6,49.8,29.97,NE,54,5.0,6.0,90,0.00,,,0.00,250,Wunderground v.1.15,2013-10-29 16:06:00,
2013-10-29 09:11:00,53.1,49.6,29.96,NE,38,7.0,8.0,88,0.00,,,0.00,262,Wunderground v.1.15,2013-10-29 16:11:00,
2013-10-29 09:16:00,53.3,49.5,29.96,NE,42,6.0,8.0,87,0.00,,,0.00,276,Wunderground v.1.15,2013-10-29 16:16:00,
2013-10-29 09:21:00,53.5,49.7,29.97,ENE,68,4.0,6.0,87,0.00,,,0.00,290,Wunderground v.1.15,2013-10-29 16:21:00,
2013-10-29 09:26:00,53.9,49.8,29.97,NE,49,6.0,6.0,86,0.00,,,0.00,304,Wunderground v.1.15,2013-10-29 16:26:00,
2013-10-29 09:31:00,55.1,51.0,29.97,NNE,26,5.0,6.0,86,0.00,,,0.00,318,Wunderground v.1.15,2013-10-29 16:31:00,
2013-10-29 09:36:00,55.8,50.7,29.97,NE,46,5.0,8.0,83,0.00,,,0.00,330,Wunderground v.1.15,2013-10-29 16:36:00,
2013-10-29 09:42:00,56.1,51.0,29.97,NE,54,7.0,7.0,83,0.00,,,0.00,346,Wunderground v.1.15,2013-10-29 16:42:00,
2013-10-29 09:47:00,56.0,50.6,29.97,NE,54,7.0,8.0,82,0.00,,,0.00,357,Wunderground v.1.15,2013-10-29 16:47:00,
2013-10-29 09:52:00,56.8,51.0,29.97,NE,54,5.0,8.0,81,0.00,,,0.00,369,Wunderground v.1.15,2013-10-29 16:52:00,
2013-10-29 09:57:00,57.4,51.6,29.97,ENE,60,6.0,9.0,81,0.00,,,0.00,381,Wunderground v.1.15,2013-10-29 16:57:00,
2013-10-29 10:03:00,57.3,50.8,29.97,ENE,68,5.0,8.0,79,0.00,,,0.00,394,Wunderground v.1.15,2013-10-29 17:03:00,
2013-10-29 10:09:00,57.8,51.0,29.97,ENE,60,4.0,9.0,78,0.00,,,0.00,410,Wunderground v.1.15,2013-10-29 17:09:00,
2013-10-29 10:14:00,57.9,50.4,29.97,East,86,4.0,6.0,76,0.00,,,0.00,422,Wunderground v.1.15,2013-10-29 17:14:00,
2013-10-29 10:20:00,58.4,50.1,29.97,ENE,72,3.0,6.0,74,0.00,,,0.00,434,Wunderground v.1.15,2013-10-29 17:20:00,
2013-10-29 10:25:00,58.7,50.8,29.97,NE,40,0.0,4.0,75,0.00,,,0.00,448,Wunderground v.1.15,2013-10-29 17:25:00,
2013-10-29 10:30:00,59.0,50.4,29.97,NE,46,3.0,4.0,73,0.00,,,0.00,455,Wunderground v.1.15,2013-10-29 17:30:00,
2013-10-29 10:36:00,59.8,50.4,29.97,ESE,103,2.0,3.0,71,0.00,,,0.00,466,Wunderground v.1.15,2013-10-29 17:36:00,
2013-10-29 10:43:00,60.3,51.2,29.97,WSW,249,2.0,2.0,72,0.00,,,0.00,482,Wunderground v.1.15,2013-10-29 17:43:00,
2013-10-29 10:48:00,60.6,50.4,29.96,SE,145,1.0,5.0,69,0.00,,,0.00,494,Wunderground v.1.15,2013-10-29 17:48:00,
2013-10-29 10:54:00,60.5,49.5,29.96,South,186,1.0,2.0,67,0.00,,,0.00,506,Wunderground v.1.15,2013-10-29 17:54:00,
2013-10-29 10:59:00,61.0,50.0,29.97,SSW,197,1.0,5.0,67,0.00,,,0.00,513,Wunderground v.1.15,2013-10-29 17:59:00,
2013-10-29 11:04:00,61.5,50.0,29.96,ESE,113,3.0,4.0,66,0.00,,,0.00,519,Wunderground v.1.15,2013-10-29 18:04:00,
2013-10-29 11:09:00,61.6,49.3,29.96,SW,224,3.0,5.0,64,0.00,,,0.00,527,Wunderground v.1.15,2013-10-29 18:09:00,
2013-10-29 11:14:00,62.1,51.4,29.96,WNW,294,2.0,7.0,68,0.00,,,0.00,531,Wunderground v.1.15,2013-10-29 18:14:00,
2013-10-29 11:20:00,62.2,49.4,29.96,SW,232,3.0,4.0,63,0.00,,,0.00,543,Wunderground v.1.15,2013-10-29 18:20:00,
2013-10-29 11:25:00,62.2,51.1,29.96,SSW,195,2.0,9.0,67,0.00,,,0.00,543,Wunderground v.1.15,2013-10-29 18:25:00,
2013-10-29 11:30:00,62.2,50.3,29.96,SW,226,2.0,5.0,65,0.00,,,0.00,555,Wunderground v.1.15,2013-10-29 18:30:00,
2013-10-29 11:35:00,62.6,51.1,29.96,South,189,2.0,10.0,66,0.00,,,0.00,561,Wunderground v.1.15,2013-10-29 18:35:00,
2013-10-29 11:41:00,63.2,50.0,29.96,SW,228,5.0,5.0,62,0.00,,,0.00,570,Wunderground v.1.15,2013-10-29 18:41:00,
2013-10-29 11:46:00,63.0,50.2,29.96,SSW,206,4.0,10.0,63,0.00,,,0.00,575,Wunderground v.1.15,2013-10-29 18:46:00,
2013-10-29 11:51:00,63.0,50.2,29.96,SSW,195,9.0,10.0,63,0.00,,,0.00,585,Wunderground v.1.15,2013-10-29 18:51:00,
2013-10-29 11:56:00,63.4,49.3,29.96,SSW,198,9.0,12.0,60,0.00,,,0.00,589,Wunderground v.1.15,2013-10-29 18:56:00,
2013-10-29 12:01:00,63.1,50.3,29.96,SW,225,5.0,11.0,63,0.00,,,0.00,577,Wunderground v.1.15,2013-10-29 19:01:00,
2013-10-29 12:06:00,63.3,51.3,29.96,SW,226,8.0,13.0,65,0.00,,,0.00,594,Wunderground v.1.15,2013-10-29 19:06:00,
2013-10-29 12:11:00,63.2,50.4,29.95,WSW,239,10.0,13.0,63,0.00,,,0.00,610,Wunderground v.1.15,2013-10-29 19:11:00,
2013-10-29 12:16:00,62.9,50.1,29.95,WSW,252,7.0,16.0,63,0.00,,,0.00,605,Wunderground v.1.15,2013-10-29 19:16:00,
2013-10-29 12:22:00,63.4,50.6,29.95,WSW,241,12.0,12.0,63,0.00,,,0.00,605,Wunderground v.1.15,2013-10-29 19:22:00,
2013-10-29 12:27:00,63.6,49.5,29.94,SW,234,13.0,15.0,60,0.00,,,0.00,598,Wunderground v.1.15,2013-10-29 19:27:00,
2013-10-29 12:32:00,63.2,50.8,29.94,SW,217,6.0,15.0,64,0.00,,,0.00,603,Wunderground v.1.15,2013-10-29 19:32:00,
2013-10-29 12:37:00,63.0,50.2,29.94,SSW,213,6.0,18.0,63,0.00,,,0.00,608,Wunderground v.1.15,2013-10-29 19:37:00,
2013-10-29 12:42:00,63.3,50.1,29.94,SSW,194,10.0,13.0,62,0.00,,,0.00,617,Wunderground v.1.15,2013-10-29 19:42:00,
2013-10-29 12:47:00,63.3,50.9,29.94,SSW,206,9.0,14.0,64,0.00,,,0.00,621,Wunderground v.1.15,2013-10-29 19:47:00,
2013-10-29 12:52:00,63.3,51.7,29.94,SW,227,12.0,15.0,66,0.00,,,0.00,635,Wunderground v.1.15,2013-10-29 19:52:00,
2013-10-29 12:57:00,63.4,50.6,29.94,SSW,204,6.0,17.0,63,0.00,,,0.00,708,Wunderground v.1.15,2013-10-29 19:57:00,
2013-10-29 13:02:00,63.2,51.2,29.94,SSW,193,8.0,16.0,65,0.00,,,0.00,575,Wunderground v.1.15,2013-10-29 20:02:00,
2013-10-29 13:07:00,63.4,51.4,29.94,SSW,195,16.0,16.0,65,0.00,,,0.00,687,Wunderground v.1.15,2013-10-29 20:07:00,
2013-10-29 13:12:00,63.4,52.2,29.94,SW,215,7.0,15.0,67,0.00,,,0.00,666,Wunderground v.1.15,2013-10-29 20:12:00,
2013-10-29 13:17:00,63.5,51.9,29.94,SW,234,10.0,16.0,66,0.00,,,0.00,622,Wunderground v.1.15,2013-10-29 20:17:00,
2013-10-29 13:22:00,63.2,52.5,29.94,SSW,210,10.0,16.0,68,0.00,,,0.00,619,Wunderground v.1.15,2013-10-29 20:22:00,
2013-10-29 13:27:00,63.5,52.7,29.94,South,170,12.0,18.0,68,0.00,,,0.00,622,Wunderground v.1.15,2013-10-29 20:27:00,
2013-10-29 13:32:00,63.1,52.0,29.94,WSW,238,16.0,16.0,67,0.00,,,0.00,622,Wunderground v.1.15,2013-10-29 20:32:00,
2013-10-29 13:37:00,63.1,52.0,29.94,SW,220,8.0,16.0,67,0.00,,,0.00,621,Wunderground v.1.15,2013-10-29 20:37:00,
2013-10-29 13:43:00,63.4,53.0,29.94,SSW,202,7.0,12.0,69,0.00,,,0.00,628,Wunderground v.1.15,2013-10-29 20:43:00,
2013-10-29 13:48:00,64.1,52.9,29.93,WSW,240,10.0,15.0,67,0.00,,,0.00,622,Wunderground v.1.15,2013-10-29 20:48:00,
2013-10-29 13:53:00,63.8,53.0,29.93,SSW,213,9.0,12.0,68,0.00,,,0.00,615,Wunderground v.1.15,2013-10-29 20:53:00,
2013-10-29 13:58:00,63.9,52.7,29.93,SW,228,15.0,15.0,67,0.00,,,0.00,608,Wunderground v.1.15,2013-10-29 20:58:00,
2013-10-29 14:03:00,64.1,52.1,29.93,SW,217,11.0,16.0,65,0.00,,,0.00,575,Wunderground v.1.15,2013-10-29 21:03:00,
2013-10-29 14:08:00,63.6,51.2,29.93,West,267,13.0,16.0,64,0.00,,,0.00,580,Wunderground v.1.15,2013-10-29 21:08:00,
2013-10-29 14:13:00,63.4,51.4,29.93,SSW,198,7.0,15.0,65,0.00,,,0.00,580,Wunderground v.1.15,2013-10-29 21:13:00,
2013-10-29 14:19:00,63.7,50.9,29.93,SW,215,5.0,16.0,63,0.00,,,0.00,571,Wunderground v.1.15,2013-10-29 21:19:00,
2013-10-29 14:24:00,63.8,50.1,29.93,SSW,194,12.0,15.0,61,0.00,,,0.00,568,Wunderground v.1.15,2013-10-29 21:24:00,
2013-10-29 14:29:00,63.9,51.1,29.93,SW,229,13.0,16.0,63,0.00,,,0.00,540,Wunderground v.1.15,2013-10-29 21:29:00,
2013-10-29 14:34:00,63.4,50.6,29.93,SW,223,5.0,14.0,63,0.00,,,0.00,531,Wunderground v.1.15,2013-10-29 21:34:00,
2013-10-29 14:39:00,63.5,51.5,29.93,SSW,200,6.0,14.0,65,0.00,,,0.00,520,Wunderground v.1.15,2013-10-29 21:39:00,
2013-10-29 14:45:00,64.2,51.3,29.93,WSW,250,4.0,13.0,63,0.00,,,0.00,513,Wunderground v.1.15,2013-10-29 21:45:00,
2013-10-29 14:50:00,64.4,50.7,29.93,SW,225,7.0,13.0,61,0.00,,,0.00,520,Wunderground v.1.15,2013-10-29 21:50:00,
2013-10-29 14:55:00,64.1,50.8,29.93,WSW,243,8.0,16.0,62,0.00,,,0.00,496,Wunderground v.1.15,2013-10-29 21:55:00,
2013-10-29 15:00:00,63.8,50.1,29.93,SSW,208,14.0,16.0,61,0.00,,,0.00,466,Wunderground v.1.15,2013-10-29 22:00:00,
2013-10-29 15:04:00,63.6,49.9,29.93,SSW,198,6.0,14.0,61,0.00,,,0.00,450,Wunderground v.1.15,2013-10-29 22:04:00,
2013-10-29 15:10:00,63.4,49.3,29.93,SSW,209,11.0,18.0,60,0.00,,,0.00,443,Wunderground v.1.15,2013-10-29 22:10:00,
2013-10-29 15:14:00,63.6,49.0,29.93,WSW,247,5.0,14.0,59,0.00,,,0.00,432,Wunderground v.1.15,2013-10-29 22:14:00,
2013-10-29 15:20:00,63.8,50.1,29.92,SSW,206,10.0,10.0,61,0.00,,,0.00,418,Wunderground v.1.15,2013-10-29 22:20:00,
2013-10-29 15:25:00,63.7,50.9,29.93,SSW,207,3.0,14.0,63,0.00,,,0.00,406,Wunderground v.1.15,2013-10-29 22:25:00,
2013-10-29 15:30:00,64.0,49.8,29.93,SSE,157,6.0,8.0,60,0.00,,,0.00,394,Wunderground v.1.15,2013-10-29 22:30:00,
2013-10-29 15:35:00,63.9,48.8,29.92,WSW,244,11.0,14.0,58,0.00,,,0.00,385,Wunderground v.1.15,2013-10-29 22:35:00,
2013-10-29 15:40:00,63.7,49.1,29.92,WSW,242,6.0,10.0,59,0.00,,,0.00,373,Wunderground v.1.15,2013-10-29 22:40:00,
2013-10-29 15:45:00,63.7,49.1,29.93,SSW,211,8.0,13.0,59,0.00,,,0.00,362,Wunderground v.1.15,2013-10-29 22:45:00,
2013-10-29 15:50:00,63.6,49.9,29.92,South,188,12.0,14.0,61,0.00,,,0.00,359,Wunderground v.1.15,2013-10-29 22:50:00,
2013-10-29 15:55:00,63.6,50.8,29.92,SSW,209,5.0,15.0,63,0.00,,,0.00,355,Wunderground v.1.15,2013-10-29 22:55:00,
2013-10-29 16:01:00,63.3,50.9,29.92,SSW,207,7.0,9.0,64,0.00,,,0.00,338,Wunderground v.1.15,2013-10-29 23:01:00,
2013-10-29 16:06:00,63.2,51.2,29.93,South,186,12.0,17.0,65,0.00,,,0.00,352,Wunderground v.1.15,2013-10-29 23:06:00,
2013-10-29 16:11:00,63.0,50.2,29.93,SSW,213,8.0,10.0,63,0.00,,,0.00,341,Wunderground v.1.15,2013-10-29 23:11:00,
2013-10-29 16:16:00,62.8,50.4,29.93,WSW,245,10.0,15.0,64,0.00,,,0.00,295,Wunderground v.1.15,2013-10-29 23:16:00,
2013-10-29 16:21:00,62.7,50.8,29.93,WSW,242,8.0,10.0,65,0.00,,,0.00,283,Wunderground v.1.15,2013-10-29 23:21:00,
2013-10-29 16:26:00,62.8,52.5,29.93,SW,232,1.0,12.0,69,0.00,,,0.00,146,Wunderground v.1.15,2013-10-29 23:26:00,
2013-10-29 16:31:00,62.0,51.3,29.93,South,171,5.0,13.0,68,0.00,,,0.00,134,Wunderground v.1.15,2013-10-29 23:31:00,
2013-10-29 16:36:00,61.3,50.6,29.93,SSW,207,6.0,13.0,68,0.00,,,0.00,67,Wunderground v.1.15,2013-10-29 23:36:00,
2013-10-29 16:41:00,60.8,51.3,29.93,SW,227,4.0,8.0,71,0.00,,,0.00,67,Wunderground v.1.15,2013-10-29 23:41:00,
2013-10-29 16:46:00,60.5,50.7,29.94,SW,234,7.0,12.0,70,0.00,,,0.00,69,Wunderground v.1.15,2013-10-29 23:46:00,
2013-10-29 16:51:00,60.3,51.2,29.94,SSW,192,6.0,15.0,72,0.00,,,0.00,83,Wunderground v.1.15,2013-10-29 23:51:00,
2013-10-29 16:57:00,60.2,50.8,29.94,SSW,208,4.0,15.0,71,0.00,,,0.00,69,Wunderground v.1.15,2013-10-29 23:57:00,
2013-10-29 17:02:00,60.2,51.5,29.94,WSW,238,6.0,11.0,73,0.00,,,0.00,54,Wunderground v.1.15,2013-10-30 00:02:00,
2013-10-29 17:07:00,60.1,51.4,29.94,SSW,211,4.0,12.0,73,0.00,,,0.00,44,Wunderground v.1.15,2013-10-30 00:07:00,
2013-10-29 17:12:00,60.1,52.1,29.94,SW,225,10.0,15.0,75,0.00,,,0.00,37,Wunderground v.1.15,2013-10-30 00:12:00,
2013-10-29 17:17:00,59.9,52.3,29.94,SSW,203,8.0,15.0,76,0.00,,,0.00,35,Wunderground v.1.15,2013-10-30 00:17:00,
2013-10-29 17:22:00,59.7,52.1,29.94,West,281,9.0,10.0,76,0.00,,,0.00,35,Wunderground v.1.15,2013-10-30 00:22:00,
2013-10-29 17:27:00,59.6,52.4,29.94,SW,231,4.0,13.0,77,0.00,,,0.00,30,Wunderground v.1.15,2013-10-30 00:27:00,
2013-10-29 17:32:00,59.5,52.3,29.95,WSW,243,5.0,8.0,77,0.00,,,0.00,19,Wunderground v.1.15,2013-10-30 00:32:00,
2013-10-29 17:37:00,59.4,52.5,29.95,SW,234,9.0,10.0,78,0.00,,,0.00,14,Wunderground v.1.15,2013-10-30 00:37:00,
2013-10-29 17:43:00,59.3,52.1,29.94,SSW,201,6.0,10.0,77,0.00,,,0.00,14,Wunderground v.1.15,2013-10-30 00:43:00,
2013-10-29 17:48:00,59.3,52.1,29.94,SSW,209,11.0,14.0,77,0.00,,,0.00,12,Wunderground v.1.15,2013-10-30 00:48:00,
2013-10-29 17:53:00,59.2,52.3,29.94,SW,225,5.0,9.0,78,0.00,,,0.00,9,Wunderground v.1.15,2013-10-30 00:53:00,
2013-10-29 17:58:00,59.1,52.6,29.94,SSW,213,3.0,11.0,79,0.00,,,0.00,7,Wunderground v.1.15,2013-10-30 00:58:00,
2013-10-29 18:03:00,59.0,52.8,29.94,SW,215,4.0,8.0,80,0.00,,,0.00,0,Wunderground v.1.15,2013-10-30 01:03:00,
2013-10-29 18:08:00,58.9,52.7,29.94,SW,225,3.0,8.0,80,0.00,,,0.00,0,Wunderground v.1.15,2013-10-30 01:08:00,
2013-10-29 18:13:00,58.8,52.6,29.94,SSW,195,3.0,8.0,80,0.00,,,0.00,0,Wunderground v.1.15,2013-10-30 01:13:00,
2013-10-29 18:18:00,58.7,52.9,29.95,SSW,205,3.0,8.0,81,0.00,,,0.00,0,Wunderground v.1.15,2013-10-30 01:18:00,
2013-10-29 18:23:00,58.6,52.8,29.94,SSW,199,3.0,4.0,81,0.00,,,0.00,0,Wunderground v.1.15,2013-10-30 01:23:00,
2013-10-29 18:28:00,58.5,53.0,29.95,SSW,212,2.0,6.0,82,0.00,,,0.00,0,Wunderground v.1.15,2013-10-30 01:28:00,
2013-10-29 18:33:00,58.4,52.9,29.95,SSE,159,4.0,5.0,82,0.00,,,0.00,0,Wunderground v.1.15,2013-10-30 01:33:00,
2013-10-29 18:39:00,58.4,52.9,29.95,SSW,202,3.0,5.0,82,0.00,,,0.00,0,Wunderground v.1.15,2013-10-30 01:39:00,
2013-10-29 18:44:00,58.1,52.6,29.95,SSW,202,2.0,3.0,82,0.00,,,0.00,0,Wunderground v.1.15,2013-10-30 01:44:00,
2013-10-29 18:49:00,58.2,52.7,29.95,SSW,203,2.0,4.0,82,0.00,,,0.00,0,Wunderground v.1.15,2013-10-30 01:49:00,
2013-10-29 18:54:00,58.2,52.4,29.95,South,190,1.0,4.0,81,0.00,,,0.00,0,Wunderground v.1.15,2013-10-30 01:54:00,
2013-10-29 19:00:00,58.0,52.5,29.95,SSW,198,1.0,3.0,82,0.00,,,0.00,0,Wunderground v.1.15,2013-10-30 02:00:00,
2013-10-29 19:06:00,57.6,52.1,29.95,SSW,194,1.0,4.0,82,0.00,,,0.00,0,Wunderground v.1.15,2013-10-30 02:06:00,
2013-10-29 19:11:00,57.5,52.0,29.96,South,187,1.0,2.0,82,0.00,,,0.00,0,Wunderground v.1.15,2013-10-30 02:11:00,
2013-10-29 19:16:00,57.5,52.0,29.96,South,180,2.0,2.0,82,0.00,,,0.00,0,Wunderground v.1.15,2013-10-30 02:16:00,
2013-10-29 19:21:00,57.3,51.9,29.96,South,182,1.0,2.0,82,0.00,,,0.00,0,Wunderground v.1.15,2013-10-30 02:21:00,
2013-10-29 19:26:00,57.0,51.9,29.96,South,182,1.0,2.0,83,0.00,,,0.00,0,Wunderground v.1.15,2013-10-30 02:26:00,
2013-10-29 19:32:00,56.5,51.7,29.96,WSW,240,0.0,1.0,84,0.00,,,0.00,0,Wunderground v.1.15,2013-10-30 02:32:00,
2013-10-29 19:37:00,56.3,51.5,29.96,SW,232,1.0,3.0,84,0.00,,,0.00,0,Wunderground v.1.15,2013-10-30 02:37:00,
2013-10-29 19:42:00,56.0,51.2,29.96,SSW,204,0.0,1.0,84,0.00,,,0.00,0,Wunderground v.1.15,2013-10-30 02:42:00,
2013-10-29 19:48:00,55.9,51.1,29.96,SSW,204,0.0,1.0,84,0.00,,,0.00,0,Wunderground v.1.15,2013-10-30 02:48:00,
2013-10-29 19:53:00,56.3,50.9,29.97,SSW,202,1.0,2.0,82,0.00,,,0.00,0,Wunderground v.1.15,2013-10-30 02:53:00,
2013-10-29 19:58:00,56.6,51.2,29.97,SSW,202,2.0,3.0,82,0.00,,,0.00,0,Wunderground v.1.15,2013-10-30 02:58:00,
2013-10-29 20:05:00,56.6,50.8,29.97,South,186,1.0,3.0,81,0.00,,,0.00,0,Wunderground v.1.15,2013-10-30 03:05:00,
2013-10-29 20:12:00,56.5,51.4,29.96,South,188,1.0,2.0,83,0.00,,,0.00,0,Wunderground v.1.15,2013-10-30 03:12:00,
2013-10-29 20:18:00,56.0,51.2,29.96,South,188,1.0,2.0,84,0.00,,,0.00,0,Wunderground v.1.15,2013-10-30 03:18:00,
2013-10-29 20:22:00,55.7,51.3,29.96,South,187,0.0,1.0,85,0.00,,,0.00,0,Wunderground v.1.15,2013-10-30 03:22:00,
2013-10-29 20:28:00,55.8,51.4,29.97,South,187,1.0,2.0,85,0.00,,,0.00,0,Wunderground v.1.15,2013-10-30 03:28:00,
2013-10-29 20:33:00,55.9,51.1,29.97,South,187,1.0,1.0,84,0.00,,,0.00,0,Wunderground v.1.15,2013-10-30 03:33:00,
2013-10-29 20:43:00,55.1,51.0,29.97,South,187,0.0,0.0,86,0.00,,,0.00,0,Wunderground v.1.15,2013-10-30 03:43:00,
2013-10-29 20:48:00,55.3,50.9,29.97,South,187,1.0,2.0,85,0.00,,,0.00,0,Wunderground v.1.15,2013-10-30 03:48:00,
2013-10-29 20:53:00,54.8,49.7,29.97,ENE,65,3.0,3.0,83,0.00,,,0.00,0,Wunderground v.1.15,2013-10-30 03:53:00,
2013-10-29 20:59:00,54.2,49.5,29.98,ENE,76,3.0,4.0,84,0.00,,,0.00,0,Wunderground v.1.15,2013-10-30 03:59:00,
2013-10-29 21:01:00,54.0,49.6,29.98,ENE,76,3.0,4.0,85,0.00,,,0.00,0,Wunderground v.1.15,2013-10-30 04:01:00,
2013-10-29 21:06:00,53.6,49.2,29.98,ENE,67,3.0,4.0,85,0.00,,,0.00,0,Wunderground v.1.15,2013-10-30 04:06:00,
2013-10-29 21:11:00,53.2,48.8,29.98,ENE,67,1.0,3.0,85,0.00,,,0.00,0,Wunderground v.1.15,2013-10-30 04:11:00,
2013-10-29 21:17:00,52.7,48.6,29.98,ENE,67,1.0,3.0,86,0.00,,,0.00,0,Wunderground v.1.15,2013-10-30 04:17:00,
2013-10-29 21:22:00,52.5,48.7,29.98,ENE,67,3.0,3.0,87,0.00,,,0.00,0,Wunderground v.1.15,2013-10-30 04:22:00,
2013-10-29 21:29:00,52.1,48.3,29.98,NE,56,2.0,4.0,87,0.00,,,0.00,0,Wunderground v.1.15,2013-10-30 04:29:00,
2013-10-29 21:33:00,52.3,48.5,29.98,NE,56,1.0,2.0,87,0.00,,,0.00,0,Wunderground v.1.15,2013-10-30 04:33:00,
2013-10-29 21:38:00,52.8,49.0,29.98,NE,56,1.0,2.0,87,0.00,,,0.00,0,Wunderground v.1.15,2013-10-30 04:38:00,
2013-10-29 21:45:00,52.3,48.2,29.99,NE,56,2.0,4.0,86,0.00,,,0.00,0,Wunderground v.1.15,2013-10-30 04:45:00,
2013-10-29 21:50:00,51.5,48.1,29.99,NE,56,3.0,4.0,88,0.00,,,0.00,0,Wunderground v.1.15,2013-10-30 04:50:00,
2013-10-29 21:55:00,51.4,48.3,29.99,NE,55,4.0,5.0,89,0.00,,,0.00,0,Wunderground v.1.15,2013-10-30 04:55:00,
2013-10-29 22:00:00,51.2,48.1,29.99,NNE,32,4.0,4.0,89,0.00,,,0.00,0,Wunderground v.1.15,2013-10-30 05:00:00,
2013-10-29 22:06:00,51.1,48.0,29.99,NE,38,4.0,5.0,89,0.00,,,0.00,0,Wunderground v.1.15,2013-10-30 05:06:00,
2013-10-29 22:11:00,51.1,48.3,29.99,NE,47,3.0,4.0,90,0.00,,,0.00,0,Wunderground v.1.15,2013-10-30 05:11:00,
2013-10-29 22:16:00,51.1,48.3,29.99,NE,43,3.0,5.0,90,0.00,,,0.00,0,Wunderground v.1.15,2013-10-30 05:16:00,
2013-10-29 22:21:00,51.1,48.3,29.99,NNE,19,5.0,5.0,90,0.00,,,0.00,0,Wunderground v.1.15,2013-10-30 05:21:00,
2013-10-29 22:26:00,51.3,48.5,29.99,NE,38,2.0,5.0,90,0.00,,,0.00,0,Wunderground v.1.15,2013-10-30 05:26:00,
2013-10-29 22:31:00,51.3,48.5,29.99,NNE,29,3.0,4.0,90,0.00,,,0.00,0,Wunderground v.1.15,2013-10-30 05:31:00,
2013-10-29 22:37:00,51.1,48.0,29.99,NE,36,3.0,5.0,89,0.00,,,0.00,0,Wunderground v.1.15,2013-10-30 05:37:00,
2013-10-29 22:42:00,50.9,48.1,30.00,NNE,28,3.0,4.0,90,0.00,,,0.00,0,Wunderground v.1.15,2013-10-30 05:42:00,
2013-10-29 22:47:00,50.7,47.9,30.00,NNE,28,3.0,4.0,90,0.00,,,0.00,0,Wunderground v.1.15,2013-10-30 05:47:00,
2013-10-29 22:52:00,50.7,47.9,30.00,NNE,22,1.0,3.0,90,0.00,,,0.00,0,Wunderground v.1.15,2013-10-30 05:52:00,
2013-10-29 22:57:00,50.4,47.6,30.00,NNE,22,0.0,3.0,90,0.00,,,0.00,0,Wunderground v.1.15,2013-10-30 05:57:00,
2013-10-29 23:02:00,50.3,47.5,29.99,NNE,26,1.0,2.0,90,0.00,,,0.00,0,Wunderground v.1.15,2013-10-30 06:02:00,
2013-10-29 23:07:00,49.6,46.8,30.00,NNE,30,3.0,5.0,90,0.00,,,0.00,0,Wunderground v.1.15,2013-10-30 06:07:00,
2013-10-29 23:12:00,49.3,46.8,30.00,NNE,31,3.0,4.0,91,0.00,,,0.00,0,Wunderground v.1.15,2013-10-30 06:12:00,
2013-10-29 23:17:00,49.5,47.0,30.00,NE,49,2.0,4.0,91,0.00,,,0.00,0,Wunderground v.1.15,2013-10-30 06:17:00,
2013-10-29 23:22:00,49.5,47.0,30.00,NE,35,2.0,3.0,91,0.00,,,0.00,0,Wunderground v.1.15,2013-10-30 06:22:00,
2013-10-29 23:27:00,49.4,46.9,30.00,NE,36,1.0,3.0,91,0.00,,,0.00,0,Wunderground v.1.15,2013-10-30 06:27:00,
2013-10-29 23:32:00,49.2,46.7,30.00,NE,36,1.0,2.0,91,0.00,,,0.00,0,Wunderground v.1.15,2013-10-30 06:32:00,
2013-10-29 23:38:00,48.8,46.3,30.00,NE,36,0.0,2.0,91,0.00,,,0.00,0,Wunderground v.1.15,2013-10-30 06:38:00,
2013-10-29 23:43:00,48.5,46.3,30.00,NE,36,0.0,2.0,92,0.00,,,0.00,0,Wunderground v.1.15,2013-10-30 06:43:00,
2013-10-29 23:48:00,48.5,46.3,30.00,NE,37,2.0,3.0,92,0.00,,,0.00,0,Wunderground v.1.15,2013-10-30 06:48:00,
2013-10-29 23:53:00,47.9,45.7,30.00,ENE,69,1.0,3.0,92,0.00,,,0.00,0,Wunderground v.1.15,2013-10-30 06:53:00,
2013-10-29 23:58:00,47.8,45.9,30.00,ENE,75,2.0,3.0,93,0.00,,,0.00,0,Wunderground v.1.15,2013-10-30 06:58:00,